Tres Isletas, Argentina
Current Conditions -  °F | °C
As of 7:00 AM on Friday 21 Nov 2014 (Local Time) from SARE Reporting Station
Broken Clouds Broken Clouds  
Wind Chill: 22°   Ceiling: 20000
Heat Index: 22°   Visibility: 4mi
Dew Point: 21°   Wind: 3mph
Humidity: 94%   Direction: 20°NNE
Pressure: 29.74"   Gusts: NA
Location:  26.35°S, 60.43°W
Report Text: SARE 211000Z 02003KT 6000 FEW100 BKN200 22/21 Q1007
Loading
Personal Weather Stations






























Interactive Weather Map New forecast layout! Learn more

10-Day Weather Forecast

Advertisements
Track Severe Weather on mobile